SouthEast Lincoln: Weather Underground Data


Davis Vantage Pro Historical Data
 
Daily Summary for October 17, 2018 Units:  English    Metric   Both
« Previous Day
Next Day »
Daily Weekly Monthly Yearly Custom
  Current: High: Low: Average:
Temperature: 69.1 °F TemperatureF °F 35.2 °F 44.7 °F
Dew Point: 45.69 °F DewpointF °F 33.38 °F 38.8 °F
Humidity: 43% Humidity% 40% 82%
Wind Speed: 0mph WindSpeedMPHmph 0mph 0.1mph
Wind Gust: 0mph WindSpeedGustMPHmph - -
Wind:Calm - - West
Pressure: 30.47 in PressureIn in 30.33 in -
Precipitation: 0 in      
Historical Graphs
 
 
Tabular Data for October 17, 2018
Time Temperature Dew Point Pressure Wind Wind Speed Wind Gust Humidity Rainfall Rate (Hourly) solar
TemperatureF °F DewpointF °F PressureIn in Calm     Humidity% HourlyPrecipIn in SolarRadiationWatts/m^2 W/m2
00:02 43.7 °F 39.79 °F 30.33 in Calm     86% 0 in 0.00 W/m2
00:08 43.5 °F 39.6 °F 30.33 in Calm     86% 0 in 0.00 W/m2
00:13 43.4 °F 39.5 °F 30.33 in Calm     86% 0 in 0.00 W/m2
00:18 43.2 °F 39.6 °F 30.33 in Calm     87% 0 in 0.00 W/m2
00:23 43.1 °F 39.79 °F 30.33 in Calm     88% 0 in 0.00 W/m2
00:28 43 °F 39.7 °F 30.33 in Calm     88% 0 in 0.00 W/m2
00:33 42.8 °F 39.5 °F 30.33 in Calm     88% 0 in 0.00 W/m2
00:38 42.7 °F 39.69 °F 30.33 in Calm     89% 0 in 0.00 W/m2
00:43 42.6 °F 39.59 °F 30.33 in Calm     89% 0 in 0.00 W/m2
00:47 42.6 °F 39.59 °F 30.33 in Calm     89% 0 in 0.00 W/m2
00:53 42.5 °F 39.78 °F 30.33 in Calm     90% 0 in 0.00 W/m2
00:57 42.5 °F 39.78 °F 30.33 in Calm     90% 0 in 0.00 W/m2
01:03 42.4 °F 39.68 °F 30.33 in Calm     90% 0 in 0.00 W/m2
01:08 42.3 °F 39.58 °F 30.33 in Calm     90% 0 in 0.00 W/m2
01:13 42.1 °F 39.38 °F 30.33 in Calm     90% 0 in 0.00 W/m2
01:18 42 °F 39.29 °F 30.33 in Calm     90% 0 in 0.00 W/m2
01:22 41.9 °F 39.19 °F 30.33 in Calm     90% 0 in 0.00 W/m2
01:28 41.8 °F 39.09 °F 30.33 in Calm     90% 0 in 0.00 W/m2
01:33 41.6 °F 38.89 °F 30.33 in Calm     90% 0 in 0.00 W/m2
01:38 41.3 °F 38.59 °F 30.33 in Calm     90% 0 in 0.00 W/m2
01:43 41.2 °F 38.5 °F 30.34 in Calm     90% 0 in 0.00 W/m2
01:47 41.1 °F 38.4 °F 30.34 in Calm     90% 0 in 0.00 W/m2
01:52 40.9 °F 38.2 °F 30.34 in Calm     90% 0 in 0.00 W/m2
01:58 40.8 °F 38.1 °F 30.34 in Calm     90% 0 in 0.00 W/m2
02:03 40.6 °F 38.18 °F 30.34 in Calm     91% 0 in 0.00 W/m2
02:08 40.6 °F 37.9 °F 30.34 in Calm     90% 0 in 0.00 W/m2
02:13 40.5 °F 38.08 °F 30.35 in Calm     91% 0 in 0.00 W/m2
02:18 40.4 °F 37.99 °F 30.35 in Calm     91% 0 in 0.00 W/m2
02:23 40.3 °F 37.89 °F 30.35 in Calm     91% 0 in 0.00 W/m2
02:27 40.2 °F 37.79 °F 30.35 in Calm     91% 0 in 0.00 W/m2
02:33 40.1 °F 37.69 °F 30.35 in Calm     91% 0 in 0.00 W/m2
02:38 40 °F 37.59 °F 30.35 in Calm     91% 0 in 0.00 W/m2
02:43 39.9 °F 37.49 °F 30.36 in Calm     91% 0 in 0.00 W/m2
02:48 39.7 °F 37.29 °F 30.35 in Calm     91% 0 in 0.00 W/m2
02:53 39.7 °F 37.29 °F 30.35 in Calm     91% 0 in 0.00 W/m2
02:58 39.6 °F 37.19 °F 30.36 in Calm     91% 0 in 0.00 W/m2
03:02 39.6 °F 37.19 °F 30.36 in Calm     91% 0 in 0.00 W/m2
03:08 39.6 °F 37.19 °F 30.36 in Calm     91% 0 in 0.00 W/m2
03:13 39.5 °F 37.1 °F 30.36 in Calm     91% 0 in 0.00 W/m2
03:18 39.4 °F 37.27 °F 30.36 in Calm     92% 0 in 0.00 W/m2
03:23 39.2 °F 37.08 °F 30.36 in Calm     92% 0 in 0.00 W/m2
03:28 39 °F 36.6 °F 30.36 in Calm     91% 0 in 0.00 W/m2
03:33 38.9 °F 36.78 °F 30.36 in Calm     92% 0 in 0.00 W/m2
03:38 38.9 °F 36.78 °F 30.37 in Calm     92% 0 in 0.00 W/m2
03:43 38.7 °F 36.58 °F 30.37 in Calm     92% 0 in 0.00 W/m2
03:48 38.7 °F 36.58 °F 30.37 in Calm     92% 0 in 0.00 W/m2
03:53 38.6 °F 36.48 °F 30.37 in Calm     92% 0 in 0.00 W/m2
03:57 38.6 °F 36.48 °F 30.37 in Calm     92% 0 in 0.00 W/m2
04:03 38.5 °F 36.38 °F 30.37 in Calm     92% 0 in 0.00 W/m2
04:08 38.4 °F 36.28 °F 30.38 in Calm     92% 0 in 0.00 W/m2
04:12 38.3 °F 36.18 °F 30.38 in Calm     92% 0 in 0.00 W/m2
04:18 38.2 °F 36.09 °F 30.38 in Calm     92% 0 in 0.00 W/m2
04:23 38.2 °F 36.09 °F 30.38 in Calm     92% 0 in 0.00 W/m2
04:28 38.1 °F 35.99 °F 30.39 in Calm     92% 0 in 0.00 W/m2
04:33 38.1 °F 35.99 °F 30.39 in Calm     92% 0 in 0.00 W/m2
04:38 38.2 °F 36.36 °F 30.39 in Calm     93% 0 in 0.00 W/m2
04:42 38.1 °F 36.26 °F 30.39 in Calm     93% 0 in 0.00 W/m2
04:47 38.2 °F 36.36 °F 30.39 in Calm     93% 0 in 0.00 W/m2
04:53 38.2 °F 36.36 °F 30.39 in Calm     93% 0 in 0.00 W/m2
04:57 38.1 °F 36.26 °F 30.39 in Calm     93% 0 in 0.00 W/m2
05:03 38 °F 36.16 °F 30.40 in Calm     93% 0 in 0.00 W/m2
05:08 37.9 °F 36.06 °F 30.40 in Calm     93% 0 in 0.00 W/m2
05:12 37.8 °F 35.96 °F 30.40 in Calm     93% 0 in 0.00 W/m2
05:17 37.7 °F 35.86 °F 30.40 in Calm     93% 0 in 0.00 W/m2
05:22 37.6 °F 35.76 °F 30.40 in Calm     93% 0 in 0.00 W/m2
05:27 37.5 °F 35.66 °F 30.40 in Calm     93% 0 in 0.00 W/m2
05:32 37.4 °F 35.57 °F 30.40 in Calm     93% 0 in 0.00 W/m2
05:37 37.3 °F 35.47 °F 30.40 in Calm     93% 0 in 0.00 W/m2
05:42 37.3 °F 35.47 °F 30.40 in Calm     93% 0 in 0.00 W/m2
05:48 37.2 °F 35.37 °F 30.40 in Calm     93% 0 in 0.00 W/m2
05:52 37.1 °F 35.27 °F 30.40 in Calm     93% 0 in 0.00 W/m2
05:58 36.9 °F 35.07 °F 30.40 in Calm     93% 0 in 0.00 W/m2
06:03 36.8 °F 34.97 °F 30.41 in Calm     93% 0 in 0.00 W/m2
06:08 36.8 °F 34.97 °F 30.41 in Calm     93% 0 in 0.00 W/m2
06:13 36.6 °F 34.77 °F 30.41 in Calm     93% 0 in 0.00 W/m2
06:17 36.6 °F 34.77 °F 30.41 in Calm     93% 0 in 0.00 W/m2
06:22 36.5 °F 34.67 °F 30.41 in Calm     93% 0 in 0.00 W/m2
06:28 36.5 °F 34.67 °F 30.41 in Calm     93% 0 in 0.00 W/m2
06:32 36.4 °F 34.57 °F 30.42 in Calm     93% 0 in 0.00 W/m2
06:38 36.4 °F 34.57 °F 30.42 in Calm     93% 0 in 0.00 W/m2
06:43 36.3 °F 34.47 °F 30.42 in Calm     93% 0 in 0.00 W/m2
06:47 36.1 °F 34.28 °F 30.42 in Calm     93% 0 in 0.00 W/m2
06:52 36.1 °F 34.28 °F 30.42 in Calm     93% 0 in 0.00 W/m2
06:58 36 °F 34.18 °F 30.42 in Calm     93% 0 in 0.00 W/m2
07:02 36 °F 34.18 °F 30.43 in Calm     93% 0 in 0.00 W/m2
07:07 35.9 °F 34.08 °F 30.42 in Calm     93% 0 in 0.00 W/m2
07:13 35.8 °F 33.98 °F 30.43 in Calm     93% 0 in 0.00 W/m2
07:18 35.7 °F 33.88 °F 30.42 in Calm     93% 0 in 0.00 W/m2
07:22 35.7 °F 33.88 °F 30.43 in Calm     93% 0 in 0.00 W/m2
07:28 35.5 °F 33.68 °F 30.43 in Calm     93% 0 in 0.00 W/m2
07:32 35.5 °F 33.68 °F 30.43 in Calm     93% 0 in 0.00 W/m2
07:38 35.4 °F 33.58 °F 30.43 in Calm     93% 0 in 0.00 W/m2
07:42 35.3 °F 33.48 °F 30.44 in Calm     93% 0 in 5.00 W/m2
07:48 35.3 °F 33.48 °F 30.43 in Calm     93% 0 in 7.00 W/m2
07:52 35.3 °F 33.48 °F 30.43 in Calm     93% 0 in 9.00 W/m2
07:57 35.2 °F 33.38 °F 30.44 in Calm     93% 0 in 16.00 W/m2
08:03 35.4 °F 33.85 °F 30.44 in Calm     94% 0 in 28.00 W/m2
08:08 35.4 °F 33.85 °F 30.44 in Calm     94% 0 in 39.00 W/m2
08:13 35.5 °F 33.95 °F 30.44 in Calm     94% 0 in 49.00 W/m2
08:17 35.9 °F 34.35 °F 30.44 in Calm     94% 0 in 58.00 W/m2
08:22 36.3 °F 34.74 °F 30.45 in Calm     94% 0 in 72.00 W/m2
08:28 37 °F 35.44 °F 30.45 in Calm     94% 0 in 90.00 W/m2
08:32 37.6 °F 36.3 °F 30.45 in Calm   1 mph 95% 0 in 98.00 W/m2
08:37 38.3 °F 37 °F 30.45 in Calm     95% 0 in 114.00 W/m2
08:43 39.3 °F 37.99 °F 30.46 in Calm     95% 0 in 130.00 W/m2
08:48 40 °F 38.69 °F 30.46 in Calm     95% 0 in 146.00 W/m2
08:52 40.6 °F 39.28 °F 30.47 in Calm     95% 0 in 158.00 W/m2
08:57 41 °F 39.68 °F 30.47 in Calm     95% 0 in 172.00 W/m2
09:03 41.6 °F 40.28 °F 30.47 in Calm     95% 0 in 190.00 W/m2
09:08 42.1 °F 40.77 °F 30.47 in Calm     95% 0 in 202.00 W/m2
09:12 42.4 °F 41.07 °F 30.47 in Calm     95% 0 in 214.00 W/m2
09:18 43.2 °F 41.87 °F 30.47 in Calm     95% 0 in 229.00 W/m2
09:22 43.7 °F 42.36 °F 30.47 in Calm     95% 0 in 239.00 W/m2
09:28 44.4 °F 42.79 °F 30.47 in Calm     94% 0 in 257.00 W/m2
09:32 44.9 °F 43.28 °F 30.47 in Calm     94% 0 in 264.00 W/m2
09:37 45.6 °F 43.41 °F 30.48 in Calm     92% 0 in 279.00 W/m2
09:42 46.3 °F 43.53 °F 30.48 in Calm     90% 0 in 292.00 W/m2
09:47 47.2 °F 43.83 °F 30.48 in Calm   3 mph 88% 0 in 313.00 W/m2
09:52 47.9 °F 43.62 °F 30.48 in West 1 mph 2 mph 85% 0 in 325.00 W/m2
09:57 48.8 °F 43.56 °F 30.48 in Calm     82% 0 in 341.00 W/m2
10:03 49.9 °F 43.32 °F 30.48 in Calm   1 mph 78% 0 in 355.00 W/m2
10:07 50.6 °F 43.67 °F 30.48 in Calm     77% 0 in 362.00 W/m2
10:12 51.4 °F 43.75 °F 30.48 in Calm     75% 0 in 378.00 W/m2
10:17 51.8 °F 43.79 °F 30.48 in Calm     74% 0 in 388.00 W/m2
10:22 52.6 °F 44.2 °F 30.48 in Calm     73% 0 in 399.00 W/m2
10:27 53.3 °F 44.52 °F 30.48 in Calm     72% 0 in 411.00 W/m2
10:33 54.3 °F 44.36 °F 30.48 in Calm     69% 0 in 424.00 W/m2
10:37 55.1 °F 45.13 °F 30.48 in Calm     69% 0 in 432.00 W/m2
10:42 56 °F 45.21 °F 30.48 in Calm     67% 0 in 441.00 W/m2
10:47 56.6 °F 44.99 °F 30.48 in Calm     65% 0 in 455.00 W/m2
10:52 57.3 °F 45.24 °F 30.48 in Calm     64% 0 in 464.00 W/m2
10:57 57.8 °F 44.45 °F 30.48 in Calm     61% 0 in 473.00 W/m2
11:02 58.5 °F 45.11 °F 30.48 in Calm     61% 0 in 483.00 W/m2
11:08 59.1 °F 44.35 °F 30.48 in Calm     58% 0 in 494.00 W/m2
11:12 59.4 °F 44.63 °F 30.48 in Calm     58% 0 in 503.00 W/m2
11:17 60.4 °F 46.02 °F 30.48 in Calm     59% 0 in 504.00 W/m2
11:22 61.3 °F 45.96 °F 30.48 in Calm     57% 0 in 517.00 W/m2
11:27 61.9 °F 44.6 °F 30.48 in Calm     53% 0 in 522.00 W/m2
11:32 62.5 °F 45.16 °F 30.49 in Calm     53% 0 in 531.00 W/m2
11:37 62.7 °F 44.84 °F 30.48 in Calm     52% 0 in 541.00 W/m2
11:42 62.9 °F 45.53 °F 30.48 in Calm     53% 0 in 545.00 W/m2
11:47 63.1 °F 44.7 °F 30.48 in WSW 1 mph 2 mph 51% 0 in 554.00 W/m2
11:52 63.1 °F 44.18 °F 30.48 in WSW 1 mph 1 mph 50% 0 in 559.00 W/m2
11:57 63.8 °F 45.34 °F 30.48 in Calm     51% 0 in 564.00 W/m2
12:02 64.4 °F 43.75 °F 30.48 in Calm   3 mph 47% 0 in 570.00 W/m2
12:07 65 °F 44.3 °F 30.48 in Calm     47% 0 in 573.00 W/m2
12:12 65 °F 43.16 °F 30.48 in Calm     45% 0 in 582.00 W/m2
12:17 65 °F 43.74 °F 30.48 in Calm     46% 0 in 582.00 W/m2
12:22 65 °F 43.74 °F 30.48 in West 3 mph 3 mph 46% 0 in 587.00 W/m2
12:27 64.8 °F 44.12 °F 30.48 in South 1 mph 2 mph 47% 0 in 591.00 W/m2
12:32 65.3 °F 44.57 °F 30.48 in NW 1 mph 1 mph 47% 0 in 592.00 W/m2
12:38 65.7 °F 44.38 °F 30.48 in NW 1 mph 2 mph 46% 0 in 596.00 W/m2
12:42 66 °F 45.21 °F 30.48 in Calm   1 mph 47% 0 in 598.00 W/m2
12:47 66.6 °F 44.62 °F 30.48 in NW 1 mph 3 mph 45% 0 in 601.00 W/m2
12:52 67 °F 43.79 °F 30.48 in Calm   2 mph 43% 0 in 603.00 W/m2
12:58 67.2 °F 43.97 °F 30.48 in Calm     43% 0 in 603.00 W/m2
13:02 67.4 °F 43.54 °F 30.48 in Calm   1 mph 42% 0 in 601.00 W/m2
13:07 67.9 °F 42.71 °F 30.48 in Calm     40% 0 in 606.00 W/m2
13:12 68.1 °F 43.54 °F 30.47 in Calm     41% 0 in 605.00 W/m2
13:17 68.5 °F 43.9 °F 30.47 in Calm     41% 0 in 605.00 W/m2
13:22 69.1 °F 45.69 °F 30.47 in Calm     43% 0 in 603.00 W/m2
SouthEast Lincoln Weather
Compliments of Weather Underground - 2 mb